createdAt,value
2022-09-06T00:01:55.405Z,49.84
2022-09-06T00:04:21.840Z,50.07
2022-09-06T00:06:48.361Z,49.82
2022-09-06T00:09:14.793Z,49.76
2022-09-06T00:11:41.308Z,50.53
2022-09-06T00:14:07.793Z,49.69
2022-09-06T00:16:34.788Z,49.37
2022-09-06T00:19:01.262Z,49.88
2022-09-06T00:21:30.852Z,50.67
2022-09-06T00:23:57.320Z,50.09
2022-09-06T00:26:24.458Z,49.84
2022-09-06T00:28:50.900Z,50.03
2022-09-06T00:31:20.693Z,49.27
2022-09-06T00:33:47.534Z,51.06
2022-09-06T00:36:14.460Z,49.73
2022-09-06T00:38:41.626Z,49.34
2022-09-06T00:41:10.999Z,48.54
2022-09-06T00:43:39.164Z,49.24
2022-09-06T00:46:08.136Z,49.66
2022-09-06T00:48:37.317Z,49.71
2022-09-06T00:51:07.239Z,48.90
2022-09-06T00:53:34.274Z,50.28
2022-09-06T00:56:00.783Z,49.13
2022-09-06T00:58:28.034Z,49.31
2022-09-06T01:00:54.702Z,49.17
2022-09-06T01:03:24.367Z,48.93
2022-09-06T01:06:15.394Z,49.96
2022-09-06T01:09:10.585Z,49.10
2022-09-06T01:12:11.816Z,49.34
2022-09-06T01:14:50.413Z,49.28
2022-09-06T01:17:29.044Z,48.90
2022-09-06T01:20:19.771Z,49.72
2022-09-06T01:23:14.093Z,50.14
2022-09-06T01:25:46.722Z,48.60
2022-09-06T01:28:32.042Z,48.46
2022-09-06T01:31:20.073Z,49.04
2022-09-06T01:34:08.206Z,48.70
2022-09-06T01:37:06.213Z,48.52
2022-09-06T01:39:33.490Z,47.92
2022-09-06T01:42:09.066Z,48.25
2022-09-06T01:44:37.096Z,49.29
2022-09-06T01:47:23.413Z,48.42
2022-09-06T01:49:55.635Z,48.11
2022-09-06T01:52:44.175Z,48.61
2022-09-06T01:55:35.195Z,49.80
2022-09-06T01:58:16.865Z,47.91
2022-09-06T02:00:55.655Z,48.36
2022-09-06T02:03:24.791Z,47.80
2022-09-06T02:06:04.388Z,48.96
2022-09-06T02:08:39.129Z,47.15
2022-09-06T02:11:08.447Z,48.32
2022-09-06T02:14:02.617Z,48.53
2022-09-06T02:16:32.672Z,47.77
2022-09-06T02:19:11.938Z,48.41
2022-09-06T02:21:43.023Z,49.18
2022-09-06T02:24:14.515Z,50.28
2022-09-06T02:26:44.063Z,47.89
2022-09-06T02:29:10.882Z,51.36
2022-09-06T02:31:49.698Z,49.50
2022-09-06T02:34:19.296Z,49.82
2022-09-06T02:36:46.542Z,51.66
2022-09-06T02:39:13.358Z,49.65
2022-09-06T02:41:44.225Z,49.04
2022-09-06T02:44:10.762Z,49.83
2022-09-06T02:46:37.255Z,48.17
2022-09-06T02:49:03.788Z,48.98
2022-09-06T02:51:30.893Z,49.60
2022-09-06T02:53:57.518Z,50.48
2022-09-06T02:56:24.888Z,49.30
2022-09-06T02:58:51.312Z,49.06
2022-09-06T03:01:17.968Z,48.41
2022-09-06T03:03:44.457Z,49.98
2022-09-06T03:06:11.074Z,50.11
2022-09-06T03:08:38.092Z,50.11
2022-09-06T03:11:04.743Z,50.70
2022-09-06T03:13:31.227Z,49.41
2022-09-06T03:15:59.516Z,50.16
2022-09-06T03:18:27.903Z,48.47
2022-09-06T03:20:56.030Z,47.57
2022-09-06T03:23:25.582Z,48.33
2022-09-06T03:25:52.569Z,49.49
2022-09-06T03:28:19.833Z,50.01
2022-09-06T03:30:48.084Z,49.37
2022-09-06T03:33:14.831Z,48.02
2022-09-06T03:35:48.110Z,50.27
2022-09-06T03:38:15.907Z,49.57
2022-09-06T03:40:45.093Z,50.18
2022-09-06T03:43:11.567Z,52.31
2022-09-06T03:45:38.009Z,52.57
2022-09-06T03:48:04.489Z,51.09
2022-09-06T03:50:30.913Z,50.77
2022-09-06T03:52:57.328Z,51.73
2022-09-06T03:55:23.729Z,50.83
2022-09-06T03:57:50.108Z,49.69
2022-09-06T04:00:16.680Z,48.52
2022-09-06T04:02:43.133Z,48.24
2022-09-06T04:05:09.882Z,48.58
2022-09-06T04:07:37.908Z,48.36
2022-09-06T04:10:05.072Z,48.37
2022-09-06T04:12:31.565Z,48.09
2022-09-06T04:14:58.007Z,47.52
2022-09-06T04:17:24.415Z,47.71
2022-09-06T04:19:50.925Z,48.21
2022-09-06T04:22:17.319Z,48.10
2022-09-06T04:24:43.749Z,47.88
2022-09-06T04:27:10.226Z,48.62
2022-09-06T04:29:36.663Z,48.40
2022-09-06T04:34:29.660Z,48.83
2022-09-06T04:36:56.229Z,48.22
2022-09-06T04:39:22.634Z,48.08
2022-09-06T04:41:49.173Z,47.68
2022-09-06T04:44:15.658Z,48.38
2022-09-06T04:46:42.691Z,48.63
2022-09-06T04:49:09.325Z,49.56
2022-09-06T04:51:37.300Z,50.36
2022-09-06T04:54:03.726Z,49.36
2022-09-06T04:56:30.302Z,50.04
2022-09-06T04:58:57.098Z,50.78
2022-09-06T05:01:26.184Z,49.43
2022-09-06T05:03:56.573Z,48.90
2022-09-06T05:06:24.747Z,49.14
2022-09-06T05:08:51.458Z,48.87
2022-09-06T05:11:18.350Z,49.74
2022-09-06T05:13:46.009Z,49.09
2022-09-06T05:16:12.508Z,48.87
2022-09-06T05:18:38.966Z,48.49
2022-09-06T05:21:05.593Z,48.88
2022-09-06T05:23:32.049Z,49.39
2022-09-06T05:25:58.470Z,48.88
2022-09-06T05:28:24.909Z,48.03
2022-09-06T05:30:51.325Z,47.63
2022-09-06T05:33:22.768Z,49.64
2022-09-06T05:35:49.792Z,50.16
2022-09-06T05:38:16.449Z,49.27
2022-09-06T05:40:42.964Z,50.70
2022-09-06T05:43:09.426Z,49.34
2022-09-06T05:45:35.880Z,49.05
2022-09-06T05:48:02.609Z,48.30
2022-09-06T05:50:29.012Z,49.25
2022-09-06T05:52:55.448Z,49.15
2022-09-06T05:55:21.886Z,50.29
2022-09-06T05:57:48.372Z,48.54
2022-09-06T06:00:15.025Z,48.21
2022-09-06T06:02:41.875Z,48.00
2022-09-06T06:05:08.582Z,49.09
2022-09-06T06:07:35.039Z,49.10
2022-09-06T06:10:01.538Z,49.40
2022-09-06T06:12:28.100Z,48.72
2022-09-06T06:14:54.523Z,48.83
2022-09-06T06:17:21.003Z,48.04
2022-09-06T06:19:47.548Z,49.20
2022-09-06T06:22:14.000Z,49.09
2022-09-06T06:24:40.470Z,48.87
2022-09-06T06:27:06.930Z,49.10
2022-09-06T06:29:33.371Z,49.22
2022-09-06T06:31:59.871Z,48.22
2022-09-06T06:34:26.395Z,47.91
2022-09-06T06:36:52.885Z,49.06
2022-09-06T06:39:19.373Z,48.29
2022-09-06T06:41:45.937Z,48.26
2022-09-06T06:44:12.402Z,47.33
2022-09-06T06:46:39.325Z,47.94
2022-09-06T06:49:05.784Z,47.89
2022-09-06T06:51:34.046Z,48.55
2022-09-06T06:54:00.559Z,48.57
2022-09-06T06:56:29.804Z,48.12
2022-09-06T06:58:58.701Z,48.24
2022-09-06T07:01:27.749Z,48.80
2022-09-06T07:03:54.521Z,46.32
2022-09-06T07:06:22.039Z,48.08
2022-09-06T07:08:48.623Z,47.35
2022-09-06T07:11:19.441Z,48.09
2022-09-06T07:13:48.069Z,47.22
2022-09-06T07:16:19.637Z,48.70
2022-09-06T07:18:46.379Z,48.66
2022-09-06T07:24:08.290Z,47.91
2022-09-06T07:26:37.570Z,48.19
2022-09-06T07:29:05.747Z,48.58
2022-09-06T07:34:20.484Z,47.51
2022-09-06T07:36:47.107Z,47.54
2022-09-06T07:39:14.055Z,48.07
2022-09-06T07:41:40.666Z,47.65
2022-09-06T07:44:07.135Z,47.05
2022-09-06T07:46:33.696Z,47.34
2022-09-06T07:49:00.155Z,46.54
2022-09-06T07:51:26.588Z,46.62
2022-09-06T07:54:12.912Z,46.68
2022-09-06T07:56:42.289Z,47.18
2022-09-06T07:59:09.249Z,47.71
2022-09-06T08:01:37.505Z,46.53
2022-09-06T08:04:15.103Z,47.03
2022-09-06T08:09:35.003Z,46.65
2022-09-06T08:12:06.661Z,46.62
2022-09-06T08:14:33.955Z,47.31
2022-09-06T08:17:00.486Z,45.40
2022-09-06T08:19:26.942Z,46.74
2022-09-06T08:21:56.566Z,47.12
2022-09-06T08:24:23.266Z,45.07
2022-09-06T08:26:49.829Z,43.16
2022-09-06T08:29:16.321Z,42.49
2022-09-06T08:31:44.246Z,42.55
2022-09-06T08:34:15.030Z,42.53
2022-09-06T08:36:42.703Z,42.47
2022-09-06T08:39:10.272Z,41.62
2022-09-06T08:41:47.669Z,41.82
2022-09-06T08:44:55.346Z,43.28
2022-09-06T08:47:22.846Z,44.81
2022-09-06T08:49:56.731Z,44.16
2022-09-06T08:52:45.350Z,43.04
2022-09-06T08:55:47.114Z,44.62
2022-09-06T08:58:22.522Z,46.02
2022-09-06T09:00:58.568Z,42.67
2022-09-06T09:03:32.325Z,44.66
2022-09-06T09:06:00.036Z,47.79
2022-09-06T09:08:31.917Z,45.09
2022-09-06T09:11:02.480Z,42.72
2022-09-06T09:13:47.142Z,43.69
2022-09-06T09:16:14.972Z,46.09
2022-09-06T09:18:47.747Z,43.02
2022-09-06T09:21:18.154Z,42.80
2022-09-06T09:23:51.318Z,43.07
2022-09-06T09:26:18.120Z,44.71
2022-09-06T09:29:10.634Z,47.06
2022-09-06T09:31:42.509Z,45.51
2022-09-06T09:34:14.563Z,46.29
2022-09-06T09:36:41.252Z,46.38
2022-09-06T09:39:11.696Z,46.32
2022-09-06T09:41:43.005Z,46.08
2022-09-06T09:44:17.402Z,45.97
2022-09-06T09:46:44.543Z,44.07
2022-09-06T09:49:29.154Z,45.30
2022-09-06T09:52:12.290Z,45.34
2022-09-06T09:54:41.083Z,44.93
2022-09-06T09:57:11.860Z,42.50
2022-09-06T09:59:58.720Z,45.22
2022-09-06T10:02:32.438Z,45.18
2022-09-06T10:05:09.612Z,44.06
2022-09-06T10:07:44.209Z,42.78
2022-09-06T10:10:22.295Z,42.79
2022-09-06T10:12:49.728Z,41.93
2022-09-06T10:15:39.627Z,41.18
2022-09-06T10:18:06.170Z,40.96
2022-09-06T10:20:43.793Z,42.19
2022-09-06T10:26:17.054Z,43.13
2022-09-06T10:28:45.340Z,41.99
2022-09-06T10:31:39.936Z,42.56
2022-09-06T10:34:11.477Z,40.46
2022-09-06T10:36:41.343Z,42.86
2022-09-06T10:39:35.016Z,43.06
2022-09-06T10:42:09.962Z,39.61
2022-09-06T10:44:58.294Z,42.18
2022-09-06T10:47:35.155Z,40.89
2022-09-06T10:50:05.117Z,43.00
2022-09-06T10:52:38.382Z,42.68
2022-09-06T10:55:06.328Z,43.30
2022-09-06T11:00:43.436Z,42.38
2022-09-06T11:06:06.729Z,41.92
2022-09-06T11:09:10.057Z,41.30
2022-09-06T11:11:40.390Z,39.50
2022-09-06T11:14:13.489Z,40.55
2022-09-06T11:16:55.562Z,42.69
2022-09-06T11:19:31.917Z,39.43
2022-09-06T11:22:29.066Z,42.80
2022-09-06T11:25:25.308Z,41.20
2022-09-06T11:27:58.098Z,41.45
2022-09-06T11:30:26.979Z,40.08
2022-09-06T11:33:11.689Z,39.41
2022-09-06T11:35:41.257Z,41.30
2022-09-06T11:38:16.615Z,41.86
2022-09-06T11:40:49.015Z,40.55
2022-09-06T11:43:43.352Z,41.67
2022-09-06T11:46:10.141Z,39.58
2022-09-06T11:49:02.712Z,41.79
2022-09-06T11:51:43.873Z,39.16
2022-09-06T11:54:19.436Z,41.01
2022-09-06T11:56:45.822Z,40.74
2022-09-06T11:59:21.546Z,38.78
2022-09-06T12:02:06.878Z,41.01
2022-09-06T12:05:01.220Z,39.77
2022-09-06T12:07:29.370Z,39.95
2022-09-06T12:09:56.113Z,39.21
2022-09-06T12:12:44.190Z,39.34
2022-09-06T12:15:42.747Z,37.59
2022-09-06T12:18:09.348Z,38.38
2022-09-06T12:20:47.997Z,37.72
2022-09-06T12:23:41.166Z,38.77
2022-09-06T12:26:09.786Z,39.55
2022-09-06T12:28:41.328Z,39.21
2022-09-06T12:31:29.097Z,39.65
2022-09-06T12:33:58.383Z,38.14
2022-09-06T12:36:30.231Z,39.62
2022-09-06T12:39:12.114Z,37.72
2022-09-06T12:41:44.957Z,37.30
2022-09-06T12:44:14.586Z,36.26
2022-09-06T12:46:47.352Z,36.74
2022-09-06T12:49:16.787Z,37.09
2022-09-06T12:51:43.688Z,36.48
2022-09-06T12:54:25.105Z,37.06
2022-09-06T12:56:53.103Z,38.39
2022-09-06T12:59:21.030Z,37.76
2022-09-06T13:02:00.555Z,36.19
2022-09-06T13:04:35.872Z,36.31
2022-09-06T13:07:04.768Z,37.47
2022-09-06T13:09:32.036Z,36.94
2022-09-06T13:12:06.438Z,37.90
2022-09-06T13:14:33.922Z,36.75
2022-09-06T13:17:01.082Z,36.61
2022-09-06T13:19:39.355Z,36.64
2022-09-06T13:22:08.679Z,36.73
2022-09-06T13:24:35.367Z,35.71
2022-09-06T13:27:27.356Z,36.37
2022-09-06T13:30:06.930Z,36.08
2022-09-06T13:32:34.924Z,36.60
2022-09-06T13:35:02.728Z,36.75
2022-09-06T13:37:31.877Z,36.29
2022-09-06T13:39:59.274Z,37.66
2022-09-06T13:42:25.720Z,36.90
2022-09-06T13:44:52.494Z,35.60
2022-09-06T13:47:18.948Z,36.90
2022-09-06T13:49:45.412Z,35.26
2022-09-06T13:52:11.901Z,36.06
2022-09-06T13:54:39.926Z,36.03
2022-09-06T13:57:06.340Z,37.56
2022-09-06T13:59:32.745Z,36.20
2022-09-06T14:02:06.872Z,36.50
2022-09-06T14:04:36.161Z,36.04
2022-09-06T14:07:03.967Z,35.97
2022-09-06T14:09:30.956Z,36.87
2022-09-06T14:11:57.669Z,36.81
2022-09-06T14:14:24.738Z,36.48
2022-09-06T14:16:51.190Z,36.68
2022-09-06T14:19:17.636Z,37.90
2022-09-06T14:21:44.354Z,36.89
2022-09-06T14:24:10.868Z,36.54
2022-09-06T14:26:38.575Z,36.57
2022-09-06T14:29:06.052Z,36.66
2022-09-06T14:31:32.659Z,37.03
2022-09-06T14:34:00.909Z,38.25
2022-09-06T14:36:32.071Z,38.36
2022-09-06T14:39:00.122Z,37.39
2022-09-06T14:41:27.466Z,36.68
2022-09-06T14:43:56.071Z,37.51
2022-09-06T14:46:24.187Z,37.84
2022-09-06T14:49:00.868Z,36.80
2022-09-06T14:51:27.903Z,37.50
2022-09-06T14:53:57.779Z,37.76
2022-09-06T14:56:24.834Z,37.46
2022-09-06T14:58:51.357Z,36.97
2022-09-06T15:01:23.673Z,36.55
2022-09-06T15:03:55.666Z,36.65
2022-09-06T15:06:23.544Z,36.58
2022-09-06T15:08:58.392Z,37.59
2022-09-06T15:11:35.567Z,36.82
2022-09-06T15:14:08.105Z,36.86
2022-09-06T15:16:35.886Z,37.04
2022-09-06T15:19:02.776Z,36.42
2022-09-06T15:21:30.650Z,36.79
2022-09-06T15:23:57.360Z,36.36
2022-09-06T15:26:24.028Z,36.18
2022-09-06T15:28:50.771Z,35.67
2022-09-06T15:31:17.564Z,35.88
2022-09-06T15:33:44.408Z,36.61
2022-09-06T15:36:11.656Z,37.08
2022-09-06T15:38:45.230Z,36.39
2022-09-06T15:41:20.141Z,35.86
2022-09-06T15:43:48.654Z,36.57
2022-09-06T15:46:17.944Z,37.24
2022-09-06T15:48:46.918Z,36.24
2022-09-06T15:51:16.617Z,36.90
2022-09-06T15:53:43.928Z,36.40
2022-09-06T15:56:13.967Z,36.89
2022-09-06T15:58:40.733Z,36.06
2022-09-06T16:01:14.514Z,36.09
2022-09-06T16:03:44.128Z,35.86
2022-09-06T16:06:28.907Z,36.22
2022-09-06T16:08:58.914Z,36.75
2022-09-06T16:11:26.512Z,36.72
2022-09-06T16:13:53.474Z,36.23
2022-09-06T16:16:21.559Z,36.45
2022-09-06T16:18:48.362Z,37.64
2022-09-06T16:21:24.464Z,36.62
2022-09-06T16:23:59.733Z,37.99
2022-09-06T16:26:29.810Z,37.50
2022-09-06T16:28:56.319Z,36.27
2022-09-06T16:31:23.216Z,35.78
2022-09-06T16:33:50.929Z,36.66
2022-09-06T16:36:18.879Z,36.35
2022-09-06T16:38:45.842Z,37.74
2022-09-06T16:41:18.829Z,37.16
2022-09-06T16:43:46.264Z,36.78
2022-09-06T16:46:13.017Z,39.37
2022-09-06T16:48:40.611Z,39.63
2022-09-06T16:51:13.822Z,38.46
2022-09-06T16:53:42.085Z,38.19
2022-09-06T16:56:10.096Z,38.83
2022-09-06T16:58:37.261Z,39.26
2022-09-06T17:01:03.845Z,37.32
2022-09-06T17:03:30.705Z,37.09
2022-09-06T17:05:57.403Z,37.23
2022-09-06T17:08:23.937Z,37.34
2022-09-06T17:10:50.494Z,38.95
2022-09-06T17:13:16.994Z,38.32
2022-09-06T17:16:10.848Z,38.50
2022-09-06T17:18:37.492Z,38.25
2022-09-06T17:21:08.082Z,38.49
2022-09-06T17:23:35.916Z,38.60
2022-09-06T17:26:03.221Z,39.14
2022-09-06T17:28:33.286Z,38.78
2022-09-06T17:31:02.152Z,38.17
2022-09-06T17:33:28.907Z,39.39
2022-09-06T17:35:55.422Z,39.49
2022-09-06T17:38:21.871Z,38.91
2022-09-06T17:40:58.004Z,39.16
2022-09-06T17:43:24.472Z,40.80
2022-09-06T17:45:50.976Z,39.52
2022-09-06T17:48:17.485Z,39.41
2022-09-06T17:50:44.302Z,38.95
2022-09-06T17:53:11.035Z,40.47
2022-09-06T17:55:41.765Z,39.55
2022-09-06T17:58:08.679Z,39.62
2022-09-06T18:00:39.395Z,39.62
2022-09-06T18:03:07.367Z,39.79
2022-09-06T18:05:39.583Z,39.70
2022-09-06T18:08:07.971Z,39.34
2022-09-06T18:10:36.801Z,40.00
2022-09-06T18:13:06.658Z,40.08
2022-09-06T18:15:39.135Z,40.23
2022-09-06T18:18:05.621Z,39.93
2022-09-06T18:20:32.102Z,40.55
2022-09-06T18:22:59.499Z,40.68
2022-09-06T18:25:26.289Z,40.54
2022-09-06T18:27:52.743Z,41.35
2022-09-06T18:30:19.196Z,41.73
2022-09-06T18:32:45.697Z,41.42
2022-09-06T18:35:12.271Z,43.19
2022-09-06T18:37:38.784Z,43.05
2022-09-06T18:40:06.537Z,41.69
2022-09-06T18:42:33.683Z,43.45
2022-09-06T18:45:00.150Z,42.55
2022-09-06T18:47:26.650Z,44.18
2022-09-06T18:49:53.072Z,44.41
2022-09-06T18:52:20.665Z,43.10
2022-09-06T18:54:48.941Z,45.62
2022-09-06T18:57:16.421Z,45.14
2022-09-06T18:59:42.990Z,44.75
2022-09-06T19:02:09.526Z,44.28
2022-09-06T19:04:36.026Z,45.57
2022-09-06T19:07:03.796Z,44.69
2022-09-06T19:09:30.307Z,45.29
2022-09-06T19:11:56.743Z,43.94
2022-09-06T19:14:23.351Z,42.92
2022-09-06T19:16:51.666Z,42.96
2022-09-06T19:19:18.208Z,46.08
2022-09-06T19:21:44.645Z,44.66
2022-09-06T19:24:12.402Z,46.52
2022-09-06T19:26:41.498Z,45.78
2022-09-06T19:29:14.903Z,45.34
2022-09-06T19:31:42.385Z,44.27
2022-09-06T19:34:09.277Z,46.74
2022-09-06T19:36:36.218Z,46.59
2022-09-06T19:39:06.335Z,47.20
2022-09-06T19:41:38.817Z,48.08
2022-09-06T19:44:08.385Z,45.45
2022-09-06T19:46:35.243Z,45.27
2022-09-06T19:49:02.207Z,45.22
2022-09-06T19:51:28.701Z,47.14
2022-09-06T19:54:00.065Z,46.32
2022-09-06T19:56:33.095Z,47.16
2022-09-06T19:59:11.150Z,46.99
2022-09-06T20:01:39.478Z,45.47
2022-09-06T20:04:08.993Z,45.69
2022-09-06T20:06:36.154Z,45.61
2022-09-06T20:09:05.761Z,45.25
2022-09-06T20:11:33.787Z,47.08
2022-09-06T20:14:00.914Z,45.92
2022-09-06T20:16:28.255Z,48.40
2022-09-06T20:18:55.153Z,47.08
2022-09-06T20:21:21.914Z,47.03
2022-09-06T20:23:50.353Z,47.94
2022-09-06T20:26:17.479Z,47.74
2022-09-06T20:28:44.661Z,47.09
2022-09-06T20:31:18.592Z,46.35
2022-09-06T20:33:49.475Z,46.64
2022-09-06T20:36:17.632Z,47.03
2022-09-06T20:38:45.413Z,47.38
2022-09-06T20:41:20.509Z,48.02
2022-09-06T20:43:58.182Z,47.76
2022-09-06T20:46:27.845Z,48.08
2022-09-06T20:48:57.677Z,47.44
2022-09-06T20:51:25.175Z,48.82
2022-09-06T20:54:02.068Z,47.62
2022-09-06T20:56:34.026Z,48.20
2022-09-06T20:59:03.010Z,48.96
2022-09-06T21:01:33.452Z,48.65
2022-09-06T21:04:01.668Z,49.86
2022-09-06T21:06:30.483Z,49.00
2022-09-06T21:08:57.537Z,49.09
2022-09-06T21:11:24.075Z,48.08
2022-09-06T21:13:56.289Z,49.17
2022-09-06T21:16:28.903Z,49.34
2022-09-06T21:19:00.471Z,50.58
2022-09-06T21:21:28.795Z,48.79
2022-09-06T21:23:55.438Z,49.05
2022-09-06T21:26:22.369Z,48.93
2022-09-06T21:28:49.839Z,50.28
2022-09-06T21:31:22.195Z,49.12
2022-09-06T21:33:52.549Z,50.29
2022-09-06T21:36:22.169Z,50.72
2022-09-06T21:38:52.334Z,50.99
2022-09-06T21:41:19.537Z,50.43
2022-09-06T21:43:46.870Z,50.05
2022-09-06T21:46:16.720Z,50.58
2022-09-06T21:48:46.023Z,50.38
2022-09-06T21:51:14.396Z,51.87
2022-09-06T21:53:42.936Z,50.68
2022-09-06T21:56:09.986Z,52.22
2022-09-06T21:58:36.487Z,51.80
2022-09-06T22:01:04.871Z,52.65
2022-09-06T22:03:34.425Z,51.66
2022-09-06T22:06:12.475Z,52.43
2022-09-06T22:08:41.726Z,52.31
2022-09-06T22:11:11.467Z,52.27
2022-09-06T22:13:38.433Z,52.88
2022-09-06T22:16:07.891Z,52.23
2022-09-06T22:18:35.055Z,52.38
2022-09-06T22:21:10.449Z,52.61
2022-09-06T22:23:37.772Z,51.86
2022-09-06T22:26:09.709Z,51.79
2022-09-06T22:28:36.527Z,51.28
2022-09-06T22:31:03.583Z,52.24
2022-09-06T22:33:30.814Z,51.36
2022-09-06T22:35:59.573Z,53.20
2022-09-06T22:38:26.973Z,54.64
2022-09-06T22:40:53.648Z,53.69
2022-09-06T22:43:20.497Z,52.86
2022-09-06T22:45:51.750Z,53.87
2022-09-06T22:48:18.998Z,53.74
2022-09-06T22:50:46.103Z,54.87
2022-09-06T22:53:12.568Z,53.42
2022-09-06T22:55:39.209Z,55.13
2022-09-06T22:58:06.177Z,54.84
2022-09-06T23:00:36.115Z,54.65
2022-09-06T23:03:02.750Z,54.82
2022-09-06T23:05:31.421Z,54.26
2022-09-06T23:08:00.197Z,55.39
2022-09-06T23:10:27.408Z,54.31
2022-09-06T23:12:54.614Z,54.58
2022-09-06T23:15:21.134Z,54.13
2022-09-06T23:17:47.959Z,55.32
2022-09-06T23:20:14.477Z,55.24
2022-09-06T23:22:41.240Z,55.79
2022-09-06T23:25:08.648Z,54.96
2022-09-06T23:27:35.111Z,56.99
2022-09-06T23:30:02.776Z,55.77
2022-09-06T23:32:31.684Z,56.14
2022-09-06T23:34:58.141Z,56.26
2022-09-06T23:37:24.700Z,57.37
2022-09-06T23:39:52.505Z,57.45
2022-09-06T23:42:19.396Z,57.26
2022-09-06T23:44:45.869Z,57.87
2022-09-06T23:47:12.318Z,57.87
2022-09-06T23:49:38.849Z,57.74
2022-09-06T23:52:05.474Z,56.67
2022-09-06T23:54:31.988Z,56.90
2022-09-06T23:56:58.546Z,57.10
2022-09-06T23:59:25.111Z,56.48
